الصفحة الرئيسية
METAR-TAF:

METAR-TAF

مطار :

مطار جيبوتي الدولي

جيبوتي, جيبوتي

دائرة عرض: 11-33N, خط طول: 043-10E, ارتفاع: 49 متر

مراقبة الطقس الحالي

تاريخ ووقت الإصدار 5ساعات و 49 دقيقة قبل الساعة 13:00UTC
ريح 10 عقدة من الشرق/الجنوب الشرقي
درجة الحرارة 31°درجة مئوية
الرطوبة 55%
ضغط 1015 hPa
الرؤية 10 كم أو أكثر
غيوم قليلة على ارتفاع 2300 قدم

METAR: HDAM 171300Z 11010KT 9999 FEW023 31/21 Q1015

زمن: 21:49 (18:49 UTC)

توقعات

تاريخ ووقت الإصدار 1ساعة و 49 دقيقة قبل الساعة 17:00UTC
التوقعات صالحة من17 الساعة 18 UTC إلى 18 الساعة 18 UTC
ريح 3 عقدةمن اتجاهات متغيرة
الرؤية 10 كم أو أكثر
غيوم متفرقة على ارتفاع 2000 قدم
أصبح
من 18 الساعة 00 UTC إلى 18 الساعة 06 UTC
ريح 10 عقدة من الشرق
غيوم متفرقة على ارتفاع 2000 قدم
أصبح
من 18 الساعة 06 UTC إلى 18 الساعة 12 UTC
ريح 10 عقدة من الشرق/الجنوب الشرقي
غيوم متفرقة على ارتفاع 2300 قدم
غيوم متفرقة على ارتفاع 3000 قدم

TAF: HDAM 171700Z 1718/1818 VRB03KT 9999 SCT020 BECMG 1800/1806 08010KT SCT020 BECMG 1806/1812 12010KT SCT023 SCT030

أرصاد الطقس والتوقعات من أكثر من 4000 مطار (تقارير الطقس للمطار METAR والتنبؤ بالطقس بالمطارTAF).

المحطات المتاحة هي النقط الصفراء والحمراء على الخريطة.

حرك المؤشر فوق النقطة لمعرفة اسم المحطة.

ثم انقر لمعرفة أرصاد وتوقعات الطقس.

لتغيير الخارطة: اضغط على الأزرار الخضراء مع رمز الصليب الأسود للتكبير. على الزر الأخضر مع شرطة للتصغير، أو على الأسهم الخضراء للخرائط المجاورة.


METAR-TAF: